Time;durP1;ratioP1;P1;durP2;ratioP2;P2;SDS_P1;SDS_P2;PMS_P1;PMS_P2;Temp;Humidity;BMP_temperature;BMP_pressure;BME280_temperature;BME280_humidity;BME280_pressure;Samples;Min_cycle;Max_cycle;Signal;HPM_P1;HPM_P2
2022/11/10 00:02:19;;;;;;;19.20;12.40;;;;;;;7.91;86.57;96775.86;104761;1303;22472;-78
2022/11/10 00:04:51;;;;;;;23.50;16.40;;;;;;;7.92;86.61;96787.48;104768;1301;22470;-78
2022/11/10 00:07:26;;;;;;;18.60;12.10;;;;;;;7.90;86.48;96786.48;104737;1285;22478;-78
2022/11/10 00:09:57;;;;;;;20.70;14.60;;;;;;;7.92;86.49;96792.66;104789;1302;22474;-78
2022/11/10 00:12:29;;;;;;;20.90;14.50;;;;;;;7.90;85.97;96796.77;104813;1309;22460;-78
2022/11/10 00:17:48;;;;;;;21.90;14.70;;;;;;;7.71;85.95;96804.58;104701;1310;24262;-78
2022/11/10 00:20:20;;;;;;;19.60;13.40;;;;;;;7.68;86.20;96810.30;104758;1302;22491;-78
2022/11/10 00:22:51;;;;;;;20.20;13.70;;;;;;;7.67;86.24;96811.78;104722;1309;22969;-78
2022/11/10 00:25:23;;;;;;;18.60;13.20;;;;;;;7.66;86.24;96816.73;104748;1289;23807;-78
2022/11/10 00:27:54;;;;;;;19.50;14.00;;;;;;;7.67;86.46;96815.89;104712;1294;22537;-78
2022/11/10 00:30:25;;;;;;;19.10;13.10;;;;;;;7.65;86.10;96820.27;104770;1302;22464;-78
2022/11/10 00:32:56;;;;;;;22.20;15.40;;;;;;;7.53;85.94;96822.23;104796;1310;22499;-78
2022/11/10 00:35:27;;;;;;;22.50;14.80;;;;;;;7.28;85.79;96821.73;104763;1296;23692;-78
2022/11/10 00:37:58;;;;;;;21.60;15.30;;;;;;;7.02;86.06;96822.09;104711;1310;25636;-78
2022/11/10 00:40:30;;;;;;;18.90;13.10;;;;;;;6.88;86.50;96817.32;104767;1310;22509;-79
2022/11/10 00:43:01;;;;;;;18.10;13.70;;;;;;;6.82;87.02;96815.41;104796;1302;24564;-78
2022/11/10 00:45:32;;;;;;;21.20;15.00;;;;;;;6.81;87.40;96816.24;104793;1310;22519;-78
2022/11/10 00:48:03;;;;;;;24.70;16.80;;;;;;;6.81;87.81;96817.20;104726;1309;22495;-78
2022/11/10 00:50:34;;;;;;;20.80;14.90;;;;;;;6.82;87.75;96821.89;104784;1302;22460;-78
2022/11/10 00:53:07;;;;;;;21.60;15.10;;;;;;;6.77;87.74;96829.44;104732;1293;23200;-78
2022/11/10 00:55:40;;;;;;;23.80;16.00;;;;;;;6.69;87.64;96837.20;104743;1310;24262;-78
2022/11/10 00:58:11;;;;;;;23.00;16.20;;;;;;;6.65;87.72;96835.48;104691;1302;22494;-78
2022/11/10 01:00:43;;;;;;;23.60;16.60;;;;;;;6.63;87.51;96835.25;104733;1302;22464;-78
2022/11/10 01:03:18;;;;;;;22.90;16.00;;;;;;;6.59;87.49;96838.45;104750;1310;24778;-78
2022/11/10 01:05:49;;;;;;;22.50;15.50;;;;;;;6.54;87.41;96835.41;104724;1305;22489;-78
2022/11/10 01:08:22;;;;;;;21.90;14.50;;;;;;;6.48;87.06;96841.08;104722;1295;28659;-78
2022/11/10 01:11:00;;;;;;;18.70;14.00;;;;;;;6.43;86.93;96841.23;104786;1309;22488;-78
2022/11/10 01:13:32;;;;;;;20.00;13.80;;;;;;;6.40;86.90;96841.61;104777;1302;22486;-78
2022/11/10 01:16:07;;;;;;;19.60;14.20;;;;;;;6.36;87.17;96845.30;104729;1296;22494;-78
2022/11/10 01:18:39;;;;;;;23.30;16.70;;;;;;;6.24;86.98;96841.42;104768;1309;36498;-79
2022/11/10 01:21:11;;;;;;;24.60;17.60;;;;;;;6.20;87.45;96842.70;104782;1309;22481;-78
2022/11/10 01:23:42;;;;;;;22.70;16.20;;;;;;;6.22;87.83;96844.19;104805;1293;22500;-78
2022/11/10 01:26:13;;;;;;;22.30;15.60;;;;;;;6.20;87.72;96847.75;104728;1309;25274;-78
2022/11/10 01:28:45;;;;;;;24.00;16.40;;;;;;;6.18;87.70;96847.80;104781;1296;22469;-78
2022/11/10 01:31:19;;;;;;;20.60;14.50;;;;;;;6.10;87.65;96841.09;104787;1293;22509;-78
2022/11/10 01:33:52;;;;;;;21.00;15.40;;;;;;;6.07;87.88;96841.06;104818;1309;22502;-78
2022/11/10 01:36:23;;;;;;;19.20;13.90;;;;;;;6.06;88.05;96839.84;104678;1304;22490;-78
2022/11/10 01:38:54;;;;;;;20.40;13.70;;;;;;;6.11;88.73;96840.63;104752;1309;22514;-78
2022/11/10 01:41:26;;;;;;;20.60;13.60;;;;;;;6.17;89.13;96840.27;104759;1287;22742;-78
2022/11/10 01:44:14;;;;;;;20.40;13.30;;;;;;;6.22;89.29;96836.09;104762;1293;22949;-78
2022/11/10 01:46:45;;;;;;;18.70;12.90;;;;;;;6.34;89.48;96835.95;104696;1304;22532;-78
2022/11/10 01:49:19;;;;;;;21.10;12.90;;;;;;;6.43;89.52;96827.85;104749;1296;23382;-78
2022/11/10 01:51:53;;;;;;;20.00;12.90;;;;;;;6.57;89.93;96828.64;104766;1310;22604;-78
2022/11/10 01:54:28;;;;;;;17.40;11.70;;;;;;;6.73;89.94;96832.33;104751;1286;23297;-78
2022/11/10 01:57:04;;;;;;;16.80;10.90;;;;;;;6.83;89.79;96832.70;104716;1303;24285;-78
2022/11/10 01:59:39;;;;;;;17.40;13.30;;;;;;;6.92;89.85;96836.70;104808;1286;22478;-78
2022/11/10 02:02:17;;;;;;;19.70;12.50;;;;;;;7.00;89.92;96842.09;104812;1310;23446;-78
2022/11/10 02:04:50;;;;;;;16.80;12.70;;;;;;;7.10;89.75;96843.20;104733;1286;22467;-78
2022/11/10 02:07:23;;;;;;;18.40;13.50;;;;;;;7.10;89.25;96852.00;104699;1302;22473;-78
2022/11/10 02:09:56;;;;;;;16.30;10.40;;;;;;;7.06;89.07;96852.70;104724;1281;22485;-78
2022/11/10 02:12:36;;;;;;;19.00;12.30;;;;;;;7.10;89.33;96848.42;104709;1302;22952;-78
2022/11/10 02:15:11;;;;;;;16.80;10.30;;;;;;;7.16;89.38;96853.20;104660;1299;22492;-78
2022/11/10 02:17:47;;;;;;;16.70;11.50;;;;;;;7.14;89.06;96853.77;104635;1286;24576;-78
2022/11/10 02:20:20;;;;;;;16.00;11.50;;;;;;;7.09;88.71;96851.63;104669;1310;22809;-78
2022/11/10 02:22:51;;;;;;;18.90;12.30;;;;;;;7.02;88.65;96851.34;104654;1296;25548;-78
2022/11/10 02:25:25;;;;;;;19.80;13.30;;;;;;;6.96;88.54;96851.50;104651;1308;22487;-78
2022/11/10 02:27:59;;;;;;;18.30;11.90;;;;;;;6.91;88.64;96855.92;104637;1309;22533;-78
2022/11/10 02:30:30;;;;;;;19.50;13.00;;;;;;;6.85;88.73;96862.65;104704;1296;22485;-78
2022/11/10 02:33:03;;;;;;;19.00;13.10;;;;;;;6.81;88.91;96866.84;104765;1296;25428;-78
2022/11/10 02:35:35;;;;;;;15.60;10.20;;;;;;;6.80;89.02;96866.89;104772;1310;24228;-78
2022/11/10 02:38:06;;;;;;;19.20;13.40;;;;;;;6.79;89.14;96868.40;104720;1309;23400;-78
2022/11/10 02:40:37;;;;;;;17.20;12.80;;;;;;;6.77;88.98;96865.54;104768;1304;25481;-78
2022/11/10 02:43:12;;;;;;;17.40;11.40;;;;;;;6.77;89.19;96869.91;104748;1302;22504;-78
2022/11/10 02:45:44;;;;;;;20.20;13.10;;;;;;;6.79;89.32;96866.88;104734;1309;22507;-78
2022/11/10 02:48:16;;;;;;;18.00;13.20;;;;;;;6.81;89.57;96871.85;104683;1309;22490;-78
2022/11/10 02:50:47;;;;;;;17.70;13.30;;;;;;;6.80;89.49;96877.06;104726;1310;22508;-78
2022/11/10 02:53:18;;;;;;;18.40;12.60;;;;;;;6.82;89.52;96882.08;104756;1286;22470;-78
2022/11/10 02:55:49;;;;;;;19.40;12.50;;;;;;;6.80;89.62;96889.55;104778;1310;24262;-78
2022/11/10 02:58:21;;;;;;;20.00;12.80;;;;;;;6.79;89.46;96887.69;104747;1303;22494;-78
2022/11/10 03:00:52;;;;;;;17.80;12.50;;;;;;;6.76;89.45;96889.08;104782;1296;22558;-78
2022/11/10 03:03:23;;;;;;;18.70;13.40;;;;;;;6.73;89.55;96887.98;104781;1304;22459;-78
2022/11/10 03:05:54;;;;;;;17.80;12.00;;;;;;;6.72;89.71;96892.55;104801;1286;22493;-78
2022/11/10 03:08:25;;;;;;;17.10;12.60;;;;;;;6.71;89.67;96894.59;104726;1293;25012;-78
2022/11/10 03:10:57;;;;;;;17.70;12.60;;;;;;;6.71;89.59;96899.23;104797;1302;25559;-78
2022/11/10 03:13:29;;;;;;;18.80;12.60;;;;;;;6.70;89.59;96901.86;104778;1309;22519;-78
2022/11/10 03:16:00;;;;;;;19.40;12.60;;;;;;;6.70;89.58;96903.98;104776;1309;22479;-78
2022/11/10 03:18:32;;;;;;;16.90;12.20;;;;;;;6.72;89.77;96910.99;104684;1310;22971;-77
2022/11/10 03:21:03;;;;;;;17.80;11.20;;;;;;;6.81;90.30;96907.36;104715;1305;25431;-78
2022/11/10 03:23:35;;;;;;;17.20;11.90;;;;;;;6.87;90.28;96909.21;104723;1310;25286;-78
2022/11/10 03:26:07;;;;;;;17.10;8.60;;;;;;;6.86;90.25;96906.20;104767;1295;22478;-78
2022/11/10 03:28:41;;;;;;;19.00;10.90;;;;;;;6.86;90.41;96910.52;104720;1291;32409;-78
2022/11/10 03:31:12;;;;;;;14.70;9.70;;;;;;;6.87;90.64;96904.63;104740;1310;22461;-77
2022/11/10 03:33:44;;;;;;;17.90;10.60;;;;;;;6.89;90.92;96897.64;104753;1310;25441;-77
2022/11/10 03:36:15;;;;;;;19.80;13.50;;;;;;;6.89;90.96;96905.13;104704;1307;24507;-77
2022/11/10 03:38:46;;;;;;;17.70;12.70;;;;;;;6.91;90.83;96904.64;104771;1286;24068;-77
2022/11/10 03:41:20;;;;;;;18.70;12.30;;;;;;;6.93;90.69;96901.08;104810;1293;22478;-77
2022/11/10 03:43:51;;;;;;;19.60;10.10;;;;;;;6.92;90.86;96901.06;104780;1293;22485;-77
2022/11/10 03:46:22;;;;;;;17.60;12.20;;;;;;;6.95;90.95;96898.67;104770;1303;23040;-77
2022/11/10 03:48:56;;;;;;;17.90;10.90;;;;;;;6.97;90.93;96902.69;104743;1307;22487;-77
2022/11/10 03:51:28;;;;;;;17.70;10.60;;;;;;;6.99;91.05;96906.14;104754;1309;22511;-77
2022/11/10 03:53:59;;;;;;;11.90;7.30;;;;;;;6.99;90.97;96908.61;104744;1302;22532;-77
2022/11/10 03:56:31;;;;;;;19.60;12.90;;;;;;;6.99;90.86;96911.41;104728;1290;24358;-77
2022/11/10 03:59:02;;;;;;;17.20;10.80;;;;;;;6.99;90.74;96909.83;104718;1296;25379;-77
2022/11/10 04:01:33;;;;;;;16.30;11.70;;;;;;;6.98;90.84;96908.77;104722;1303;22528;-77
2022/11/10 04:04:04;;;;;;;16.70;12.10;;;;;;;6.95;90.73;96917.23;104707;1309;22520;-77
2022/11/10 04:09:41;;;;;;;17.60;13.00;;;;;;;6.93;90.71;96931.23;104567;1314;22505;-77
2022/11/10 04:20:49;;;;;;;19.50;12.10;;;;;;;6.87;90.48;96928.19;104711;1310;22688;-78
2022/11/10 04:23:27;;;;;;;15.80;11.40;;;;;;;6.86;90.57;96926.76;104781;1309;24771;-78
2022/11/10 04:28:52;;;;;;;16.40;11.90;;;;;;;6.89;90.72;96940.70;104682;1293;22525;-77
2022/11/10 04:31:25;;;;;;;16.80;11.00;;;;;;;6.96;90.87;96941.37;104707;1310;22492;-78
2022/11/10 04:33:57;;;;;;;17.10;12.40;;;;;;;7.03;90.89;96949.63;104717;1303;22756;-78
2022/11/10 04:36:31;;;;;;;19.10;12.30;;;;;;;7.08;90.72;96942.89;104645;1293;22530;-78
2022/11/10 04:39:04;;;;;;;15.50;10.70;;;;;;;7.09;90.89;96954.55;104806;1293;25354;-78
2022/11/10 04:41:36;;;;;;;18.80;12.60;;;;;;;7.11;90.78;96957.20;104816;1309;25554;-78
2022/11/10 04:44:08;;;;;;;16.90;12.20;;;;;;;7.12;90.63;96959.69;104827;1293;22631;-78
2022/11/10 04:46:41;;;;;;;17.50;12.50;;;;;;;7.14;90.55;96961.50;104729;1300;24313;-78
2022/11/10 04:49:13;;;;;;;18.20;13.10;;;;;;;7.15;90.42;96960.23;104752;1295;22479;-78
2022/11/10 04:51:45;;;;;;;16.60;11.70;;;;;;;7.14;90.26;96954.59;104729;1310;22471;-78
2022/11/10 04:54:17;;;;;;;16.20;12.10;;;;;;;7.14;90.19;96958.75;104763;1290;22471;-78
2022/11/10 04:56:48;;;;;;;16.60;12.40;;;;;;;7.14;90.22;96959.11;104709;1310;22487;-78
2022/11/10 04:59:20;;;;;;;19.60;13.10;;;;;;;7.14;90.22;96965.35;104808;1308;22530;-78
2022/11/10 05:01:51;;;;;;;20.20;13.40;;;;;;;7.14;90.20;96965.45;104784;1310;22573;-78
2022/11/10 05:04:23;;;;;;;18.90;12.30;;;;;;;7.13;90.17;96961.54;104790;1301;22497;-78
2022/11/10 05:06:54;;;;;;;14.10;10.30;;;;;;;7.13;90.08;96957.16;104710;1308;23131;-78
2022/11/10 05:09:27;;;;;;;18.40;12.10;;;;;;;7.14;90.44;96961.02;104754;1309;23033;-78
2022/11/10 05:11:58;;;;;;;19.00;10.70;;;;;;;7.11;90.12;96969.17;104719;1296;22484;-78
2022/11/10 05:14:30;;;;;;;29.90;18.30;;;;;;;7.11;90.25;96969.96;104756;1292;22490;-78
2022/11/10 05:17:03;;;;;;;19.60;13.40;;;;;;;7.14;90.50;96972.83;104721;1303;22639;-78
2022/11/10 05:19:34;;;;;;;18.90;12.40;;;;;;;7.14;90.46;96973.42;104715;1294;22541;-78
2022/11/10 05:22:06;;;;;;;21.10;14.10;;;;;;;7.13;90.45;96974.77;104748;1295;22483;-78
2022/11/10 05:24:40;;;;;;;21.00;14.30;;;;;;;7.09;90.49;96977.75;104752;1310;22485;-78
2022/11/10 05:27:11;;;;;;;19.10;13.50;;;;;;;7.09;90.54;96979.64;104687;1288;24031;-78
2022/11/10 05:29:42;;;;;;;61.20;27.30;;;;;;;7.09;90.54;96988.30;104793;1301;22475;-78
2022/11/10 05:32:13;;;;;;;30.80;14.30;;;;;;;7.11;90.62;96992.21;104797;1301;22576;-78
2022/11/10 05:34:44;;;;;;;26.00;15.70;;;;;;;7.14;90.66;96998.14;104783;1291;22473;-78
2022/11/10 05:37:15;;;;;;;19.40;12.50;;;;;;;7.17;90.79;97001.77;104736;1299;22485;-78
2022/11/10 05:39:49;;;;;;;19.40;11.70;;;;;;;7.20;90.79;96998.96;104744;1296;22483;-78
2022/11/10 05:42:20;;;;;;;16.10;9.40;;;;;;;7.20;90.69;96997.17;104788;1302;22552;-78
2022/11/10 05:44:51;;;;;;;19.40;12.20;;;;;;;7.16;90.84;97001.00;104774;1283;26444;-78
2022/11/10 05:47:22;;;;;;;18.00;10.10;;;;;;;7.11;91.03;97004.34;104707;1293;22541;-78
2022/11/10 05:49:54;;;;;;;16.00;9.80;;;;;;;7.08;91.30;96999.24;104769;1302;25483;-78
2022/11/10 05:52:25;;;;;;;15.40;10.00;;;;;;;7.07;91.48;97006.30;104757;1310;24579;-78
2022/11/10 05:54:57;;;;;;;16.10;10.50;;;;;;;7.05;91.88;97005.02;104771;1309;22467;-78
2022/11/10 05:57:28;;;;;;;19.50;11.60;;;;;;;7.06;91.83;97005.87;104703;1302;22478;-78
2022/11/10 05:59:59;;;;;;;19.70;11.40;;;;;;;7.07;92.03;97006.73;104731;1292;22550;-77
2022/11/10 06:02:30;;;;;;;18.80;11.10;;;;;;;7.08;92.13;97015.17;104735;1310;24356;-78
2022/11/10 06:05:01;;;;;;;16.80;8.50;;;;;;;7.11;92.24;97023.11;104742;1310;23841;-77
2022/11/10 06:07:33;;;;;;;17.00;10.80;;;;;;;7.15;92.42;97026.58;104720;1303;22620;-77
2022/11/10 06:10:04;;;;;;;17.10;10.90;;;;;;;7.20;92.37;97026.27;104804;1286;25510;-77
2022/11/10 06:12:36;;;;;;;18.80;12.00;;;;;;;7.22;92.12;97031.10;104804;1298;24153;-78
2022/11/10 06:15:10;;;;;;;20.30;13.70;;;;;;;7.29;92.05;97033.17;104808;1293;22469;-77
2022/11/10 06:17:42;;;;;;;20.40;13.80;;;;;;;7.33;92.04;97041.52;104761;1310;25361;-78
2022/11/10 06:20:15;;;;;;;14.90;9.60;;;;;;;7.34;91.94;97047.29;104743;1295;22961;-78
2022/11/10 06:22:58;;;;;;;15.10;9.20;;;;;;;7.36;91.77;97051.10;104739;1309;22481;-77
2022/11/10 06:25:35;;;;;;;15.60;10.50;;;;;;;7.41;91.68;97058.42;104731;1295;22474;-77
2022/11/10 06:28:08;;;;;;;13.00;8.60;;;;;;;7.46;91.48;97067.39;104738;1280;22501;-78
2022/11/10 06:30:40;;;;;;;17.40;10.60;;;;;;;7.48;91.38;97076.92;104712;1293;23542;-78
2022/11/10 06:33:12;;;;;;;15.20;8.90;;;;;;;7.47;91.34;97076.18;104761;1286;22519;-78
2022/11/10 06:35:43;;;;;;;18.60;12.80;;;;;;;7.49;91.27;97074.56;104743;1310;24287;-78
2022/11/10 06:38:14;;;;;;;18.40;12.00;;;;;;;7.52;91.28;97072.33;104718;1297;25039;-78
2022/11/10 06:40:45;;;;;;;16.10;10.90;;;;;;;7.53;90.98;97078.08;104812;1286;22514;-77
2022/11/10 06:43:16;;;;;;;16.60;10.10;;;;;;;7.54;91.00;97079.25;104812;1287;22534;-78
2022/11/10 06:45:48;;;;;;;16.10;9.60;;;;;;;7.54;90.93;97086.85;104798;1294;23200;-78
2022/11/10 06:48:19;;;;;;;14.40;10.00;;;;;;;7.54;90.89;97088.75;104745;1296;22461;-77
2022/11/10 06:50:50;;;;;;;18.50;11.80;;;;;;;7.57;90.81;97092.89;104777;1310;22573;-77
2022/11/10 06:53:22;;;;;;;16.80;11.90;;;;;;;7.59;90.92;97095.04;104782;1287;25364;-77
2022/11/10 06:55:54;;;;;;;16.90;12.10;;;;;;;7.68;90.93;97094.71;104788;1302;22680;-77
2022/11/10 06:58:25;;;;;;;17.50;12.50;;;;;;;7.76;90.76;97095.39;104699;1296;23153;-77
2022/11/10 07:00:59;;;;;;;15.90;11.10;;;;;;;7.83;90.68;97107.95;104788;1302;22504;-77
2022/11/10 07:03:30;;;;;;;16.40;11.10;;;;;;;7.89;90.36;97113.20;104778;1308;22475;-78
2022/11/10 07:06:01;;;;;;;17.60;12.60;;;;;;;7.93;90.12;97119.11;104759;1296;22537;-78
2022/11/10 07:08:32;;;;;;;16.90;12.50;;;;;;;7.95;89.99;97124.73;104723;1296;25536;-77
2022/11/10 07:11:04;;;;;;;17.00;12.40;;;;;;;7.96;89.85;97131.28;104813;1296;22481;-77
2022/11/10 07:13:35;;;;;;;15.40;11.20;;;;;;;8.00;89.91;97130.41;104784;1293;22682;-78
2022/11/10 07:16:09;;;;;;;15.80;11.90;;;;;;;8.02;89.73;97131.02;104769;1295;24836;-77
2022/11/10 07:18:40;;;;;;;17.60;12.40;;;;;;;8.05;89.57;97137.30;104747;1304;31491;-77
2022/11/10 07:21:12;;;;;;;18.80;13.40;;;;;;;8.08;89.50;97143.60;104735;1289;22508;-77
2022/11/10 07:23:45;;;;;;;18.00;13.60;;;;;;;8.11;89.43;97145.27;104764;1292;24492;-77
2022/11/10 07:26:18;;;;;;;17.70;13.20;;;;;;;8.16;89.13;97144.84;104729;1289;25305;-78
2022/11/10 07:28:50;;;;;;;17.20;12.50;;;;;;;8.17;89.11;97147.19;104794;1303;24256;-78
2022/11/10 07:31:22;;;;;;;16.20;11.80;;;;;;;8.18;88.87;97151.95;104777;1289;22485;-78
2022/11/10 07:33:54;;;;;;;17.30;13.00;;;;;;;8.15;88.55;97160.88;104775;1302;25322;-77
2022/11/10 07:36:27;;;;;;;14.90;11.30;;;;;;;8.11;88.67;97158.99;104743;1310;22682;-78
2022/11/10 07:39:01;;;;;;;16.80;12.50;;;;;;;8.11;88.71;97167.02;104176;1287;1009645;-78
2022/11/10 07:41:33;;;;;;;18.10;13.50;;;;;;;8.12;88.66;97170.73;104756;1311;24330;-78
2022/11/10 07:44:04;;;;;;;18.80;13.20;;;;;;;8.11;88.62;97174.58;104773;1289;22489;-78
2022/11/10 07:46:38;;;;;;;19.10;13.50;;;;;;;8.08;88.41;97178.41;104669;1297;25103;-78
2022/11/10 07:49:10;;;;;;;16.70;13.50;;;;;;;8.07;88.47;97178.77;104724;1310;22480;-78
2022/11/10 07:51:42;;;;;;;17.50;12.60;;;;;;;8.08;88.47;97179.67;104733;1286;22476;-78
2022/11/10 07:54:13;;;;;;;17.90;13.00;;;;;;;8.08;88.47;97181.69;104727;1311;26600;-78
2022/11/10 07:56:44;;;;;;;17.50;12.30;;;;;;;8.09;88.59;97183.65;104728;1309;22492;-77
2022/11/10 07:59:16;;;;;;;17.40;12.20;;;;;;;8.11;88.65;97187.46;104838;1300;24479;-77
2022/11/10 08:01:47;;;;;;;18.40;12.90;;;;;;;8.11;88.70;97196.70;104806;1290;24132;-78
2022/11/10 08:04:19;;;;;;;18.80;12.50;;;;;;;8.12;88.89;97199.84;104793;1287;22936;-78
2022/11/10 08:06:50;;;;;;;17.90;13.70;;;;;;;8.11;88.84;97203.73;104730;1290;28324;-78
2022/11/10 08:09:22;;;;;;;17.40;12.50;;;;;;;8.11;88.77;97204.80;104811;1311;24352;-78
2022/11/10 08:11:53;;;;;;;18.70;13.10;;;;;;;8.10;88.79;97207.95;104799;1307;24282;-78
2022/11/10 08:14:27;;;;;;;17.40;12.00;;;;;;;8.08;88.76;97208.62;104821;1294;22477;-78
2022/11/10 08:17:00;;;;;;;16.10;10.90;;;;;;;8.08;88.94;97217.13;104735;1303;22500;-78
2022/11/10 08:19:34;;;;;;;20.40;13.00;;;;;;;8.06;88.91;97221.44;104755;1309;22518;-78
2022/11/10 08:22:05;;;;;;;20.90;13.70;;;;;;;8.07;88.93;97220.02;104752;1311;22473;-77
2022/11/10 08:24:36;;;;;;;18.90;13.70;;;;;;;8.07;89.05;97227.63;104760;1293;22574;-77
2022/11/10 08:27:08;;;;;;;20.00;13.00;;;;;;;8.07;89.15;97234.91;104721;1309;22524;-77
2022/11/10 08:29:39;;;;;;;18.10;13.30;;;;;;;8.07;89.06;97240.71;104761;1309;22611;-77
2022/11/10 08:32:10;;;;;;;18.00;12.60;;;;;;;8.07;89.03;97240.66;104760;1309;22545;-77
2022/11/10 08:34:42;;;;;;;19.30;12.90;;;;;;;8.10;88.91;97244.81;104766;1301;24364;-77
2022/11/10 08:37:13;;;;;;;18.10;12.80;;;;;;;8.12;88.90;97243.14;104720;1303;22507;-77
2022/11/10 08:39:46;;;;;;;18.10;12.20;;;;;;;8.15;88.88;97245.08;104750;1287;22478;-77
2022/11/10 08:42:18;;;;;;;15.60;12.60;;;;;;;8.18;89.00;97250.73;104752;1310;22487;-77
2022/11/10 08:44:59;;;;;;;15.70;10.80;;;;;;;8.23;89.20;97253.79;104760;1311;22471;-77
2022/11/10 08:47:31;;;;;;;16.70;12.60;;;;;;;8.30;89.24;97253.61;104712;1311;22514;-77
2022/11/10 08:50:02;;;;;;;19.30;11.70;;;;;;;8.36;89.51;97256.50;104809;1310;22476;-77
2022/11/10 08:52:33;;;;;;;16.50;11.90;;;;;;;8.42;89.98;97258.55;104822;1293;25333;-77
2022/11/10 08:55:07;;;;;;;19.80;12.70;;;;;;;8.47;89.91;97257.27;104807;1311;22472;-77
2022/11/10 08:57:39;;;;;;;17.70;11.60;;;;;;;8.51;90.31;97258.20;104732;1308;22478;-77
2022/11/10 09:00:16;;;;;;;17.60;12.30;;;;;;;8.50;90.93;97262.05;104764;1308;22493;-77
2022/11/10 09:02:47;;;;;;;16.00;11.50;;;;;;;8.47;91.72;97269.36;104757;1298;22479;-78
2022/11/10 09:05:19;;;;;;;19.20;13.40;;;;;;;8.45;92.18;97275.30;104765;1302;22545;-78
2022/11/10 09:07:51;;;;;;;17.30;11.70;;;;;;;8.44;92.70;97279.98;104729;1310;24375;-78
2022/11/10 09:10:24;;;;;;;18.10;13.10;;;;;;;8.46;93.36;97290.06;104784;1295;22503;-78
2022/11/10 09:12:58;;;;;;;18.30;13.70;;;;;;;8.48;93.68;97289.51;104816;1311;22488;-78
2022/11/10 09:15:35;;;;;;;16.30;12.40;;;;;;;8.53;93.84;97289.28;104801;1301;22497;-78
2022/11/10 09:18:08;;;;;;;17.30;12.40;;;;;;;8.57;94.10;97293.81;104778;1297;23740;-78
2022/11/10 09:20:40;;;;;;;17.70;12.10;;;;;;;8.58;93.97;97295.98;104801;1294;22657;-78
2022/11/10 09:23:12;;;;;;;17.60;11.90;;;;;;;8.61;94.23;97298.42;104781;1301;22470;-78
2022/11/10 09:25:48;;;;;;;18.50;11.40;;;;;;;8.61;94.53;97301.48;104799;1293;22484;-78
2022/11/10 09:28:20;;;;;;;17.80;11.40;;;;;;;8.60;94.81;97309.14;104725;1298;22635;-78
2022/11/10 09:30:52;;;;;;;18.20;11.20;;;;;;;8.58;95.03;97305.64;104795;1296;22497;-78
2022/11/10 09:33:24;;;;;;;16.90;11.80;;;;;;;8.63;95.41;97306.16;104787;1311;22477;-77
2022/11/10 09:35:59;;;;;;;18.90;13.00;;;;;;;8.69;95.47;97304.83;104790;1303;22544;-78
2022/11/10 09:38:30;;;;;;;19.50;12.60;;;;;;;8.76;95.65;97307.94;104715;1310;25426;-78
2022/11/10 09:41:04;;;;;;;18.20;12.90;;;;;;;8.79;95.60;97315.95;104774;1302;22552;-78
2022/11/10 09:43:41;;;;;;;18.30;12.80;;;;;;;8.81;95.63;97312.05;104779;1309;23158;-78
2022/11/10 09:46:19;;;;;;;19.20;13.80;;;;;;;8.79;95.43;97318.96;104709;1293;25233;-78
2022/11/10 09:48:55;;;;;;;18.80;13.20;;;;;;;8.80;95.88;97316.65;104804;1281;24131;-78
2022/11/10 09:51:29;;;;;;;16.10;10.50;;;;;;;8.82;96.09;97320.35;104835;1296;22476;-78
2022/11/10 09:54:05;;;;;;;18.20;11.90;;;;;;;8.80;96.31;97321.72;104798;1311;22492;-78
2022/11/10 09:56:37;;;;;;;17.80;13.60;;;;;;;8.72;96.41;97330.05;104769;1309;22477;-77
2022/11/10 09:59:19;;;;;;;19.00;14.40;;;;;;;8.68;96.66;97329.73;104823;1284;25377;-78
2022/11/10 10:01:57;;;;;;;16.90;12.90;;;;;;;8.68;96.65;97334.16;104812;1308;22538;-78
2022/11/10 10:04:45;;;;;;;16.80;13.50;;;;;;;8.66;96.69;97334.56;104810;1285;22473;-78
2022/11/10 10:07:21;;;;;;;20.30;12.50;;;;;;;8.66;96.85;97342.02;104753;1300;22498;-78
2022/11/10 10:10:01;;;;;;;18.50;13.40;;;;;;;8.66;97.09;97345.95;104784;1306;22510;-78
2022/11/10 10:12:57;;;;;;;18.50;12.50;;;;;;;8.69;97.14;97347.33;104753;1311;22584;-78
2022/11/10 10:15:41;;;;;;;18.40;13.20;;;;;;;8.75;97.24;97354.09;104778;1295;25268;-78
2022/11/10 10:18:29;;;;;;;17.00;12.40;;;;;;;8.79;97.22;97354.33;104751;1305;22502;-78
2022/11/10 10:21:15;;;;;;;19.00;14.20;;;;;;;8.81;97.13;97354.92;104737;1310;22474;-78
2022/11/10 10:23:50;;;;;;;23.50;14.60;;;;;;;8.86;97.33;97356.26;104737;1310;22678;-78
2022/11/10 10:26:27;;;;;;;17.90;13.20;;;;;;;8.92;97.30;97360.28;104726;1311;22493;-78
2022/11/10 10:29:03;;;;;;;18.80;13.80;;;;;;;8.97;97.41;97363.65;104764;1295;23635;-78
2022/11/10 10:31:39;;;;;;;17.10;13.20;;;;;;;9.03;97.46;97368.97;104779;1305;22781;-78
2022/11/10 10:34:15;;;;;;;19.90;12.30;;;;;;;9.09;97.54;97363.95;104764;1310;22494;-78
2022/11/10 10:36:47;;;;;;;16.40;10.80;;;;;;;9.14;97.68;97359.38;104702;1301;22679;-78
2022/11/10 10:39:29;;;;;;;17.60;12.90;;;;;;;9.15;97.69;97360.41;104804;1287;22488;-78
2022/11/10 10:42:04;;;;;;;16.50;12.10;;;;;;;9.19;97.94;97360.98;104783;1311;24480;-78
2022/11/10 10:44:36;;;;;;;18.00;11.80;;;;;;;9.22;97.85;97361.69;104787;1293;22469;-78
2022/11/10 10:47:07;;;;;;;15.60;12.30;;;;;;;9.23;97.77;97365.92;104722;1287;22952;-78
2022/11/10 10:49:38;;;;;;;17.10;12.20;;;;;;;9.29;97.79;97365.77;104768;1297;22481;-79
2022/11/10 10:52:14;;;;;;;16.50;12.30;;;;;;;9.31;97.79;97368.20;104751;1298;25573;-78
2022/11/10 10:54:45;;;;;;;14.70;11.60;;;;;;;9.33;97.87;97374.71;104768;1305;22524;-78
2022/11/10 10:57:24;;;;;;;15.60;11.10;;;;;;;9.33;97.73;97378.98;104721;1308;24275;-78
2022/11/10 11:00:18;;;;;;;15.60;11.40;;;;;;;9.35;97.77;97377.41;104755;1286;22475;-78
2022/11/10 11:03:03;;;;;;;13.30;9.40;;;;;;;9.38;97.89;97371.20;104732;1295;22481;-78
2022/11/10 11:05:34;;;;;;;14.80;10.40;;;;;;;9.43;97.89;97372.27;104771;1287;22468;-78
2022/11/10 11:08:07;;;;;;;15.40;11.50;;;;;;;9.49;97.92;97377.70;104748;1309;25852;-78
2022/11/10 11:10:46;;;;;;;18.60;12.70;;;;;;;9.52;97.69;97379.69;104793;1304;22549;-78
2022/11/10 11:13:24;;;;;;;13.90;10.50;;;;;;;9.59;97.62;97381.49;104808;1309;25333;-78
2022/11/10 11:16:03;;;;;;;15.60;10.90;;;;;;;9.64;97.47;97380.83;104840;1293;22516;-78
2022/11/10 11:18:37;;;;;;;13.90;10.90;;;;;;;9.67;97.48;97377.73;104741;1296;27483;-78
2022/11/10 11:21:24;;;;;;;14.10;10.90;;;;;;;9.71;97.39;97379.04;104799;1297;22476;-79
2022/11/10 11:24:21;;;;;;;14.20;9.90;;;;;;;9.73;97.18;97381.62;104825;1291;22480;-78
2022/11/10 11:26:59;;;;;;;14.80;10.30;;;;;;;9.76;97.08;97381.47;104745;1296;23604;-79
2022/11/10 11:29:46;;;;;;;13.40;9.90;;;;;;;9.74;96.79;97378.66;104781;1309;25307;-78
2022/11/10 11:32:41;;;;;;;12.40;8.60;;;;;;;9.77;96.91;97386.55;104778;1293;22479;-79
2022/11/10 11:35:24;;;;;;;11.70;9.00;;;;;;;9.76;96.58;97387.88;104811;1295;22517;-78
2022/11/10 11:38:08;;;;;;;13.00;9.80;;;;;;;9.76;96.55;97396.88;104719;1311;24305;-78
2022/11/10 11:40:58;;;;;;;12.80;9.20;;;;;;;9.76;96.45;97403.61;104767;1311;24390;-78
2022/11/10 11:43:35;;;;;;;;;;;;;;;9.77;96.28;97409.12;104798;1309;22527;-78
2022/11/10 11:46:18;;;;;;;9.80;6.20;;;;;;;9.77;96.20;97411.87;104763;1312;22474;-79
2022/11/10 11:49:03;;;;;;;10.60;7.70;;;;;;;9.76;95.95;97410.75;104743;1310;22541;-78
2022/11/10 11:51:43;;;;;;;11.40;7.70;;;;;;;9.75;95.96;97415.67;104743;1311;23410;-79
2022/11/10 11:54:29;;;;;;;12.70;8.00;;;;;;;9.73;95.79;97420.12;104733;1296;22505;-79
2022/11/10 11:57:16;;;;;;;11.30;7.50;;;;;;;9.73;95.81;97424.73;104769;1310;22477;-78
2022/11/10 12:00:02;;;;;;;11.10;7.80;;;;;;;9.73;95.68;97423.55;104769;1309;22486;-79
2022/11/10 12:03:12;;;;;;;11.70;7.80;;;;;;;9.72;95.72;97418.88;104793;1296;25312;-79
2022/11/10 12:05:57;;;;;;;10.90;8.20;;;;;;;9.71;95.33;97417.05;104802;1299;22472;-79
2022/11/10 12:08:39;;;;;;;12.70;8.10;;;;;;;9.72;95.32;97412.67;104744;1294;23361;-79